sim
Sign-in with your pilot id or email,
or register
Callsign
Passwort

Schedule Details

Flight Number: OEO7266
Departure: Dusseldorf International Airport (EDDL) at 07:20
Arrival: Fuerteventura Airport (GCFV) at 12:20

Weather Information
Getting current METAR information for EDDL 212150Z 34003KT CAVOK 12/05 Q1014 NOSIG
Getting current METAR information for GCFV 212130Z 34010KT 300V360 9999 SCT029 19/13 Q1015

Schedule Frequency

Route Map